Time;durP1;ratioP1;P1;durP2;ratioP2;P2;SDS_P1;SDS_P2;PMS_P1;PMS_P2;Temp;Humidity;BMP_temperature;BMP_pressure;BME280_temperature;BME280_humidity;BME280_pressure;Samples;Min_cycle;Max_cycle;Signal;HPM_P1;HPM_P2
2023/09/26 00:02:08;;;;;;;4.93;4.47;;;12.30;81.70;;;;;;5021004;28;20133;-74
2023/09/26 00:04:33;;;;;;;8.82;5.15;;;12.20;82.00;;;;;;5037450;28;20416;-73
2023/09/26 00:07:02;;;;;;;6.25;4.90;;;12.20;82.10;;;;;;5037433;28;20017;-76
2023/09/26 00:09:27;;;;;;;8.52;4.60;;;12.20;82.20;;;;;;5055453;28;20020;-76
2023/09/26 00:11:53;;;;;;;6.15;4.57;;;12.20;82.10;;;;;;5037185;28;20029;-75
2023/09/26 00:14:19;;;;;;;6.32;4.60;;;12.20;82.40;;;;;;5037340;28;20385;-75
2023/09/26 00:16:44;;;;;;;6.72;4.65;;;12.20;82.20;;;;;;5055340;28;20040;-84
2023/09/26 00:19:10;;;;;;;8.85;4.68;;;12.00;82.30;;;;;;5037663;28;20025;-83
2023/09/26 00:21:35;;;;;;;5.13;4.43;;;12.00;82.60;;;;;;5037098;28;20036;-85
2023/09/26 00:24:01;;;;;;;8.00;5.03;;;11.90;82.80;;;;;;5037729;28;20029;-76
2023/09/26 00:26:27;;;;;;;6.13;4.97;;;11.90;82.90;;;;;;5037404;28;20017;-84
2023/09/26 00:28:52;;;;;;;8.15;4.55;;;11.80;83.10;;;;;;5042200;28;20112;-85
2023/09/26 00:31:18;;;;;;;4.82;4.18;;;11.80;83.30;;;;;;5039875;28;20025;-74
2023/09/26 00:33:44;;;;;;;7.53;5.03;;;11.90;83.10;;;;;;5040898;28;20031;-82
2023/09/26 00:36:12;;;;;;;9.82;5.05;;;11.90;83.20;;;;;;5043801;28;20041;-74
2023/09/26 00:38:38;;;;;;;7.95;5.03;;;11.90;83.20;;;;;;5069645;28;20025;-78
2023/09/26 00:41:05;;;;;;;5.90;4.70;;;11.90;83.20;;;;;;5076304;28;20021;-80
2023/09/26 00:43:31;;;;;;;7.22;4.85;;;11.90;83.10;;;;;;5071102;28;20112;-73
2023/09/26 00:45:59;;;;;;;6.28;4.65;;;11.90;83.00;;;;;;5036752;28;20053;-73
2023/09/26 00:48:25;;;;;;;6.68;4.50;;;11.80;82.90;;;;;;5070702;28;20044;-85
2023/09/26 00:50:52;;;;;;;8.07;5.05;;;11.80;82.50;;;;;;5069804;28;20401;-74
2023/09/26 00:53:19;;;;;;;6.63;5.15;;;11.60;83.40;;;;;;5069814;28;20036;-75
2023/09/26 00:55:45;;;;;;;6.45;4.63;;;11.50;84.20;;;;;;5069843;28;20122;-73
2023/09/26 00:58:13;;;;;;;6.28;4.95;;;11.60;84.00;;;;;;5069801;28;20079;-75
2023/09/26 01:00:39;;;;;;;5.90;4.65;;;11.60;83.70;;;;;;5069747;28;20040;-74
2023/09/26 01:03:05;;;;;;;7.00;5.10;;;11.60;83.80;;;;;;5069709;28;20495;-74
2023/09/26 01:05:32;;;;;;;6.20;5.03;;;11.70;83.80;;;;;;5069608;28;20115;-73
2023/09/26 01:07:58;;;;;;;7.32;5.85;;;11.70;83.70;;;;;;5069521;28;20067;-74
2023/09/26 01:10:24;;;;;;;6.30;5.38;;;11.70;83.30;;;;;;5069784;28;20029;-73
2023/09/26 01:12:50;;;;;;;7.10;5.30;;;11.60;83.60;;;;;;5069644;28;20029;-73
2023/09/26 01:15:30;;;;;;;6.00;5.15;;;11.60;83.60;;;;;;5035904;28;20394;-74
2023/09/26 01:17:56;;;;;;;6.20;5.43;;;11.70;83.60;;;;;;5069351;28;20036;-75
2023/09/26 01:20:22;;;;;;;7.57;5.80;;;11.70;83.50;;;;;;5069274;28;20037;-74
2023/09/26 01:22:49;;;;;;;6.53;5.63;;;11.60;83.60;;;;;;5069594;28;20465;-74
2023/09/26 01:25:16;;;;;;;7.32;5.93;;;11.60;83.50;;;;;;5069429;28;20025;-75
2023/09/26 01:27:41;;;;;;;7.30;6.07;;;11.60;83.30;;;;;;5069427;28;20025;-73
2023/09/26 01:30:08;;;;;;;6.82;6.22;;;11.60;83.50;;;;;;5069093;28;20021;-74
2023/09/26 01:32:34;;;;;;;8.90;6.07;;;11.60;83.30;;;;;;5069085;28;20040;-72
2023/09/26 01:34:59;;;;;;;11.20;7.53;;;11.60;83.20;;;;;;5069045;28;20021;-74
2023/09/26 01:37:25;;;;;;;8.43;6.75;;;11.70;83.80;;;;;;5068960;28;20159;-73
2023/09/26 01:39:51;;;;;;;6.93;6.22;;;11.70;84.30;;;;;;5069102;28;20527;-74
2023/09/26 01:42:16;;;;;;;10.27;5.90;;;11.60;83.80;;;;;;5069036;28;20024;-74
2023/09/26 01:44:42;;;;;;;9.23;7.45;;;11.60;83.40;;;;;;5069057;28;20404;-77
2023/09/26 01:47:14;;;;;;;7.70;6.60;;;11.70;83.70;;;;;;5068976;28;20060;-74
2023/09/26 01:49:40;;;;;;;7.88;6.38;;;11.60;83.70;;;;;;5068894;28;20028;-84
2023/09/26 01:52:06;;;;;;;8.80;7.18;;;11.60;83.60;;;;;;5069163;28;20127;-80
2023/09/26 01:54:32;;;;;;;9.38;6.93;;;11.60;82.90;;;;;;5069237;28;20056;-84
2023/09/26 01:56:57;;;;;;;9.48;7.07;;;11.60;83.00;;;;;;5068880;28;20036;-77
2023/09/26 01:59:24;;;;;;;6.32;5.72;;;11.60;83.20;;;;;;5068732;28;20108;-76
2023/09/26 02:01:50;;;;;;;7.15;6.07;;;11.50;83.30;;;;;;5069202;28;20075;-82
2023/09/26 02:04:15;;;;;;;9.35;6.15;;;11.60;83.40;;;;;;5068019;28;20064;-81
2023/09/26 02:06:42;;;;;;;6.10;5.50;;;11.60;83.20;;;;;;5068692;28;20469;-76
2023/09/26 02:09:08;;;;;;;6.00;5.40;;;11.70;83.20;;;;;;5052049;28;20037;-76
2023/09/26 02:11:33;;;;;;;8.23;5.78;;;11.70;83.00;;;;;;5068523;28;20420;-77
2023/09/26 02:13:59;;;;;;;6.15;5.30;;;11.70;82.80;;;;;;5068528;28;20123;-76
2023/09/26 02:16:25;;;;;;;5.82;5.32;;;11.80;82.60;;;;;;5068839;28;20017;-75
2023/09/26 02:18:50;;;;;;;8.20;6.13;;;11.80;82.50;;;;;;5068410;28;20339;-75
2023/09/26 02:21:16;;;;;;;6.82;5.95;;;11.80;82.10;;;;;;5051356;28;20029;-77
2023/09/26 02:23:42;;;;;;;7.28;5.90;;;11.70;81.60;;;;;;5051492;28;20052;-78
2023/09/26 02:26:08;;;;;;;7.50;6.13;;;11.60;83.20;;;;;;5068637;28;20382;-76
2023/09/26 02:28:33;;;;;;;8.90;6.80;;;11.40;83.00;;;;;;5068841;28;20032;-76
2023/09/26 02:30:59;;;;;;;6.80;5.75;;;11.30;83.90;;;;;;5068423;28;20461;-75
2023/09/26 02:33:25;;;;;;;6.90;6.15;;;11.20;84.50;;;;;;5051555;28;20470;-75
2023/09/26 02:35:51;;;;;;;6.13;5.57;;;11.20;84.30;;;;;;5052717;28;20162;-76
2023/09/26 02:38:16;;;;;;;6.38;5.47;;;11.20;84.30;;;;;;5034855;28;20055;-78
2023/09/26 02:40:42;;;;;;;6.25;5.63;;;11.20;84.50;;;;;;5034903;28;20021;-83
2023/09/26 02:43:07;;;;;;;5.95;5.38;;;11.30;84.30;;;;;;5034927;28;20025;-76
2023/09/26 02:45:33;;;;;;;8.93;6.90;;;11.30;84.00;;;;;;5034466;28;20021;-75
2023/09/26 02:47:59;;;;;;;8.32;5.35;;;11.30;83.50;;;;;;5034951;28;20036;-75
2023/09/26 02:50:25;;;;;;;8.38;6.32;;;11.20;83.20;;;;;;5034927;28;20025;-75
2023/09/26 02:52:52;;;;;;;8.00;7.03;;;11.10;83.70;;;;;;5034681;28;20373;-77
2023/09/26 02:55:20;;;;;;;9.98;6.93;;;11.10;84.00;;;;;;5034985;28;20385;-78
2023/09/26 02:57:45;;;;;;;7.28;6.57;;;11.10;84.50;;;;;;5035076;28;20123;-83
2023/09/26 03:00:16;;;;;;;8.73;6.93;;;11.10;85.00;;;;;;5034949;28;20481;-76
2023/09/26 03:02:45;;;;;;;9.23;6.47;;;11.10;85.00;;;;;;5056976;28;20100;-84
2023/09/26 03:05:10;;;;;;;8.20;6.93;;;11.10;84.90;;;;;;5038428;28;20029;-75
2023/09/26 03:07:39;;;;;;;6.93;6.22;;;11.10;84.60;;;;;;5038704;28;20098;-75
2023/09/26 03:10:06;;;;;;;6.57;5.97;;;11.20;84.40;;;;;;5038580;28;20070;-75
2023/09/26 03:12:31;;;;;;;8.73;7.30;;;11.20;84.20;;;;;;5038614;28;20090;-76
2023/09/26 03:14:57;;;;;;;5.68;5.18;;;11.30;84.10;;;;;;5038234;28;20021;-75
2023/09/26 03:17:23;;;;;;;7.55;6.47;;;11.30;83.80;;;;;;5037975;28;20378;-75
2023/09/26 03:19:48;;;;;;;8.05;7.25;;;11.40;83.50;;;;;;5038389;28;20029;-75
2023/09/26 03:22:15;;;;;;;11.15;7.57;;;11.40;83.00;;;;;;5038345;28;20017;-75
2023/09/26 03:24:40;;;;;;;11.52;7.65;;;11.30;83.40;;;;;;5038173;28;20029;-76
2023/09/26 03:27:06;;;;;;;10.07;7.95;;;11.20;83.80;;;;;;5038156;28;20032;-75
2023/09/26 03:29:31;;;;;;;7.65;6.93;;;11.20;85.00;;;;;;5038132;28;20072;-76
2023/09/26 03:31:57;;;;;;;8.70;6.57;;;11.30;84.30;;;;;;5021534;28;20025;-76
2023/09/26 03:34:22;;;;;;;8.80;7.13;;;11.20;84.40;;;;;;5038015;28;20025;-74
2023/09/26 03:36:50;;;;;;;6.68;6.07;;;11.20;83.80;;;;;;5031344;28;20056;-75
2023/09/26 03:39:16;;;;;;;6.35;5.70;;;11.20;83.30;;;;;;5071387;28;20029;-75
2023/09/26 03:41:43;;;;;;;6.93;5.93;;;11.10;83.50;;;;;;5071404;28;20024;-75
2023/09/26 03:44:09;;;;;;;9.73;6.75;;;11.10;83.60;;;;;;5071502;28;20052;-76
2023/09/26 03:46:34;;;;;;;7.88;6.32;;;11.00;83.80;;;;;;5071547;28;20025;-76
2023/09/26 03:49:00;;;;;;;6.68;5.93;;;11.00;84.00;;;;;;5037738;28;20045;-75
2023/09/26 03:51:25;;;;;;;6.28;5.55;;;11.00;83.50;;;;;;5070877;28;20029;-76
2023/09/26 03:53:51;;;;;;;8.32;6.65;;;10.90;82.70;;;;;;5070930;28;20373;-76
2023/09/26 03:56:17;;;;;;;5.95;5.35;;;10.80;82.90;;;;;;5038276;28;20036;-76
2023/09/26 03:58:43;;;;;;;10.15;5.82;;;10.80;83.10;;;;;;5078158;28;20396;-82
2023/09/26 04:01:14;;;;;;;7.72;5.25;;;10.90;83.10;;;;;;5082867;28;20112;-80
2023/09/26 04:03:41;;;;;;;6.15;5.55;;;10.90;83.00;;;;;;5079954;28;20083;-78
2023/09/26 04:06:07;;;;;;;5.95;4.90;;;10.90;82.90;;;;;;5070832;28;20473;-77
2023/09/26 04:08:33;;;;;;;5.70;4.93;;;11.00;82.80;;;;;;5070793;28;20036;-81
2023/09/26 04:10:59;;;;;;;7.78;5.22;;;11.00;82.70;;;;;;5070624;28;20079;-79
2023/09/26 04:13:25;;;;;;;6.30;4.70;;;11.00;82.30;;;;;;5070503;28;20128;-77
2023/09/26 04:15:52;;;;;;;5.28;4.68;;;11.10;82.10;;;;;;5070593;28;20021;-76
2023/09/26 04:18:18;;;;;;;6.93;5.10;;;11.10;81.70;;;;;;5070477;28;20025;-75
2023/09/26 04:20:44;;;;;;;6.47;5.75;;;11.10;81.40;;;;;;5054743;28;20032;-76
2023/09/26 04:23:10;;;;;;;7.22;6.13;;;11.10;81.60;;;;;;5070438;28;20032;-76
2023/09/26 04:25:36;;;;;;;5.95;5.40;;;11.00;82.10;;;;;;5069977;28;20470;-79
2023/09/26 04:28:03;;;;;;;6.65;5.80;;;10.90;82.20;;;;;;5070337;28;20043;-76
2023/09/26 04:30:30;;;;;;;9.57;6.53;;;10.80;82.20;;;;;;5069927;28;20031;-73
2023/09/26 04:32:55;;;;;;;6.93;6.30;;;10.80;82.40;;;;;;5070553;28;20057;-74
2023/09/26 04:35:21;;;;;;;8.90;6.88;;;10.90;82.60;;;;;;5070190;28;20651;-74
2023/09/26 04:37:47;;;;;;;7.70;6.90;;;10.90;83.10;;;;;;5037338;28;20059;-77
2023/09/26 04:40:12;;;;;;;8.65;7.75;;;10.90;83.00;;;;;;5036865;28;20484;-75
2023/09/26 04:42:44;;;;;;;10.15;9.07;;;10.90;83.00;;;;;;5036920;28;20045;-75
2023/09/26 04:45:10;;;;;;;9.55;8.65;;;10.90;83.30;;;;;;5020991;28;20027;-74
2023/09/26 04:47:36;;;;;;;12.00;10.40;;;10.90;83.40;;;;;;5036489;28;20120;-74
2023/09/26 04:50:02;;;;;;;11.48;10.27;;;10.90;83.70;;;;;;5036738;28;20033;-74
2023/09/26 04:52:28;;;;;;;10.90;9.80;;;10.90;83.90;;;;;;5036752;28;20033;-74
2023/09/26 04:54:54;;;;;;;9.90;8.85;;;10.90;84.50;;;;;;5036575;28;20064;-75
2023/09/26 04:57:20;;;;;;;16.08;11.52;;;10.90;84.40;;;;;;5036535;28;20029;-74
2023/09/26 04:59:46;;;;;;;22.17;10.00;;;10.80;84.40;;;;;;5036560;28;20096;-75
2023/09/26 05:02:11;;;;;;;13.80;10.60;;;10.90;84.90;;;;;;5041346;28;20048;-74
2023/09/26 05:04:37;;;;;;;15.00;11.77;;;10.80;84.90;;;;;;5052645;28;20169;-74
2023/09/26 05:07:04;;;;;;;14.30;10.10;;;10.90;85.30;;;;;;5052419;28;20492;-74
2023/09/26 05:09:30;;;;;;;11.43;10.23;;;10.90;85.40;;;;;;5053425;28;20100;-75
2023/09/26 05:11:57;;;;;;;12.73;11.30;;;10.90;85.30;;;;;;5058530;28;20052;-74
2023/09/26 05:14:22;;;;;;;13.32;10.43;;;10.90;86.10;;;;;;5054614;28;20040;-75
2023/09/26 05:16:49;;;;;;;14.55;11.20;;;10.90;85.60;;;;;;5053404;28;20090;-75
2023/09/26 05:19:18;;;;;;;9.20;8.30;;;11.00;85.30;;;;;;5035866;28;20397;-76
2023/09/26 05:21:43;;;;;;;12.50;9.63;;;10.90;84.40;;;;;;5052779;28;20033;-77
2023/09/26 05:24:09;;;;;;;8.45;7.65;;;10.80;83.90;;;;;;5051432;28;20064;-73
2023/09/26 05:26:34;;;;;;;7.53;6.50;;;10.70;83.70;;;;;;5053734;28;20028;-74
2023/09/26 05:29:01;;;;;;;11.85;6.72;;;10.60;82.50;;;;;;5052205;28;20021;-75
2023/09/26 05:31:30;;;;;;;6.55;5.85;;;10.60;82.40;;;;;;5051521;28;20116;-75
2023/09/26 05:33:57;;;;;;;7.93;6.50;;;10.60;82.90;;;;;;5052095;28;20170;-76
2023/09/26 05:36:23;;;;;;;9.88;8.82;;;10.60;83.80;;;;;;5059414;28;20037;-75
2023/09/26 05:38:49;;;;;;;11.85;9.02;;;10.60;84.90;;;;;;5056094;28;20029;-75
2023/09/26 05:41:15;;;;;;;10.88;9.60;;;10.60;85.20;;;;;;5068550;28;20025;-75
2023/09/26 05:43:40;;;;;;;12.10;9.82;;;10.70;85.80;;;;;;5069149;28;20032;-77
2023/09/26 05:46:06;;;;;;;11.55;9.23;;;10.70;85.70;;;;;;5069167;28;20374;-74
2023/09/26 05:48:31;;;;;;;12.20;9.38;;;10.80;85.50;;;;;;5068240;28;20021;-76
2023/09/26 05:51:00;;;;;;;11.52;8.30;;;10.90;85.10;;;;;;5068594;28;20033;-77
2023/09/26 05:53:26;;;;;;;13.68;9.00;;;11.00;84.50;;;;;;5052206;28;20132;-79
2023/09/26 05:55:52;;;;;;;12.57;9.98;;;11.10;84.00;;;;;;5051957;28;20048;-77
2023/09/26 05:58:21;;;;;;;15.10;10.98;;;11.20;84.30;;;;;;5051509;28;20621;-76
2023/09/26 06:00:46;;;;;;;13.95;10.98;;;11.10;83.90;;;;;;5068721;28;20036;-74
2023/09/26 06:03:14;;;;;;;11.73;10.13;;;11.10;84.30;;;;;;5068748;28;20025;-76
2023/09/26 06:05:40;;;;;;;12.00;10.40;;;11.10;84.30;;;;;;5069163;28;20362;-76
2023/09/26 06:08:06;;;;;;;15.48;10.77;;;11.10;84.20;;;;;;5068619;28;20052;-74
2023/09/26 06:10:33;;;;;;;14.48;11.10;;;11.10;83.90;;;;;;5051307;28;20055;-77
2023/09/26 06:12:59;;;;;;;16.05;11.10;;;11.10;83.60;;;;;;5068347;28;20110;-77
2023/09/26 06:15:25;;;;;;;12.38;10.45;;;11.10;83.70;;;;;;5068729;28;20458;-75
2023/09/26 06:17:57;;;;;;;12.25;9.50;;;11.20;84.00;;;;;;5068156;28;20481;-74
2023/09/26 06:20:23;;;;;;;13.68;9.48;;;11.30;84.10;;;;;;5068494;28;20064;-75
2023/09/26 06:22:48;;;;;;;10.02;9.00;;;11.30;83.90;;;;;;5068153;28;20072;-75
2023/09/26 06:25:15;;;;;;;15.10;9.90;;;11.40;83.80;;;;;;5068516;28;20021;-76
2023/09/26 06:27:42;;;;;;;10.95;9.27;;;11.50;83.70;;;;;;5051421;28;20059;-76
2023/09/26 06:30:11;;;;;;;11.93;10.35;;;11.60;83.50;;;;;;5062108;28;20118;-76
2023/09/26 06:32:37;;;;;;;13.82;10.85;;;11.70;82.80;;;;;;5056626;28;20037;-76
2023/09/26 06:35:03;;;;;;;13.30;9.57;;;11.70;82.70;;;;;;5052956;28;20024;-74
2023/09/26 06:37:28;;;;;;;14.82;10.77;;;11.70;82.80;;;;;;5072106;28;20045;-74
2023/09/26 06:39:58;;;;;;;13.43;10.05;;;11.80;82.90;;;;;;5055792;28;20103;-76
2023/09/26 06:42:23;;;;;;;10.27;9.27;;;11.90;82.80;;;;;;5055592;28;20382;-76
2023/09/26 06:44:49;;;;;;;15.27;10.23;;;11.90;82.50;;;;;;5071854;28;20033;-76
2023/09/26 06:47:16;;;;;;;13.70;10.00;;;12.00;82.30;;;;;;5055285;28;20029;-76
2023/09/26 06:49:42;;;;;;;11.60;9.07;;;12.10;82.50;;;;;;5056814;28;20021;-76
2023/09/26 06:52:07;;;;;;;9.25;8.10;;;12.20;82.60;;;;;;5072317;28;20032;-77
2023/09/26 06:54:33;;;;;;;9.65;8.57;;;12.30;82.70;;;;;;5055308;28;20119;-75
2023/09/26 06:56:59;;;;;;;11.43;8.52;;;12.40;82.40;;;;;;5072325;28;20021;-74
2023/09/26 06:59:24;;;;;;;19.25;8.90;;;12.60;82.20;;;;;;5072280;28;20381;-75
2023/09/26 07:01:50;;;;;;;10.65;8.15;;;12.70;81.70;;;;;;5071454;28;20025;-74
2023/09/26 07:04:15;;;;;;;10.50;8.30;;;12.80;81.20;;;;;;5071863;28;20025;-75
2023/09/26 07:07:31;;;;;;;9.88;8.00;;;12.80;80.90;;;;;;5071876;28;20036;-85
2023/09/26 07:09:58;;;;;;;13.53;8.43;;;12.90;82.10;;;;;;5062129;28;20061;-79
2023/09/26 07:12:26;;;;;;;9.75;7.20;;;13.20;82.10;;;;;;5039083;28;20299;-78
2023/09/26 07:14:55;;;;;;;9.93;6.70;;;13.40;82.10;;;;;;5054185;28;20042;-78
2023/09/26 07:17:20;;;;;;;7.07;6.38;;;13.80;81.30;;;;;;5071778;28;20037;-79
2023/09/26 07:19:46;;;;;;;8.18;6.65;;;14.10;79.80;;;;;;5072487;28;20541;-79
2023/09/26 07:22:13;;;;;;;13.35;6.65;;;14.30;78.50;;;;;;5071968;28;20347;-79
2023/09/26 07:24:39;;;;;;;11.05;6.75;;;14.50;77.60;;;;;;5071915;28;20504;-77
2023/09/26 07:27:09;;;;;;;10.50;6.95;;;14.70;77.00;;;;;;5037741;28;20045;-76
2023/09/26 07:29:43;;;;;;;12.57;6.80;;;14.90;75.60;;;;;;5055145;28;20498;-79
2023/09/26 07:32:09;;;;;;;10.80;5.82;;;15.00;75.00;;;;;;5038365;28;20086;-80
2023/09/26 07:34:36;;;;;;;11.80;6.05;;;15.10;74.30;;;;;;5055584;28;20115;-77
2023/09/26 07:37:03;;;;;;;11.52;7.20;;;15.10;73.70;;;;;;5054722;28;20520;-79
2023/09/26 07:39:30;;;;;;;9.23;6.03;;;15.10;73.70;;;;;;5054688;28;20027;-79
2023/09/26 07:41:56;;;;;;;9.30;6.03;;;15.10;74.20;;;;;;5054775;28;20040;-77
2023/09/26 07:44:22;;;;;;;12.80;6.13;;;15.20;74.10;;;;;;5039113;28;20037;-79
2023/09/26 07:46:49;;;;;;;9.20;5.75;;;15.20;75.00;;;;;;5039757;28;20055;-80
2023/09/26 07:49:16;;;;;;;7.93;5.57;;;15.30;74.10;;;;;;5060549;28;20036;-77
2023/09/26 07:51:41;;;;;;;7.82;4.70;;;15.40;74.10;;;;;;5037691;28;20025;-76
2023/09/26 07:54:08;;;;;;;5.55;4.20;;;15.50;75.50;;;;;;5037509;28;20036;-77
2023/09/26 07:56:35;;;;;;;8.00;5.22;;;15.50;75.00;;;;;;5055653;28;20017;-76
2023/09/26 07:59:01;;;;;;;8.57;4.70;;;15.60;76.30;;;;;;5054343;28;20120;-76
2023/09/26 08:01:27;;;;;;;5.18;3.88;;;15.50;75.90;;;;;;5037378;28;20025;-77
2023/09/26 08:03:53;;;;;;;6.38;4.32;;;15.70;75.40;;;;;;5054245;28;20171;-77
2023/09/26 08:06:19;;;;;;;9.55;5.20;;;15.90;74.50;;;;;;5053921;28;20059;-76
2023/09/26 08:09:08;;;;;;;11.55;4.68;;;16.00;74.10;;;;;;5053315;28;20124;-78
2023/09/26 08:11:33;;;;;;;15.77;5.68;;;16.10;74.20;;;;;;5052879;28;20036;-76
2023/09/26 08:13:59;;;;;;;9.73;5.55;;;16.10;74.70;;;;;;5054075;28;20393;-79
2023/09/26 08:16:24;;;;;;;11.90;5.05;;;16.10;76.20;;;;;;5053862;28;20106;-76
2023/09/26 08:18:50;;;;;;;7.35;5.15;;;16.10;74.70;;;;;;5078722;28;20029;-76
2023/09/26 08:21:17;;;;;;;13.02;5.28;;;16.20;75.00;;;;;;5055294;28;20017;-77
2023/09/26 08:23:43;;;;;;;10.88;4.90;;;16.20;74.20;;;;;;5038247;28;20030;-76
2023/09/26 08:26:11;;;;;;;7.97;4.28;;;16.30;74.00;;;;;;5037831;28;20182;-76
2023/09/26 08:28:40;;;;;;;8.35;4.72;;;16.40;73.80;;;;;;5037649;28;20052;-76
2023/09/26 08:31:10;;;;;;;7.38;5.50;;;16.50;73.70;;;;;;5053891;28;20025;-76
2023/09/26 08:33:37;;;;;;;8.52;4.72;;;16.50;72.30;;;;;;5053581;28;20032;-77
2023/09/26 08:36:17;;;;;;;11.73;4.97;;;16.60;72.50;;;;;;5053422;28;20045;-77
2023/09/26 08:38:43;;;;;;;6.35;4.65;;;16.80;72.00;;;;;;5053859;28;20024;-77
2023/09/26 08:41:11;;;;;;;7.35;4.40;;;16.90;71.00;;;;;;5053094;28;20029;-76
2023/09/26 08:43:37;;;;;;;5.32;4.50;;;17.00;70.90;;;;;;5053550;28;20032;-76
2023/09/26 08:46:05;;;;;;;5.40;4.20;;;17.10;70.90;;;;;;5053543;28;20025;-76
2023/09/26 08:48:31;;;;;;;6.85;3.92;;;17.30;69.80;;;;;;5053565;28;20380;-78
2023/09/26 08:50:56;;;;;;;9.30;4.78;;;17.50;69.10;;;;;;5053084;28;20025;-76
2023/09/26 08:53:22;;;;;;;8.60;4.68;;;17.70;69.00;;;;;;5052700;28;20037;-75
2023/09/26 08:55:49;;;;;;;9.85;4.75;;;17.90;68.30;;;;;;5053525;28;20025;-75
2023/09/26 08:58:16;;;;;;;8.57;4.80;;;18.00;67.90;;;;;;5052269;28;20025;-76
2023/09/26 09:00:43;;;;;;;6.05;4.07;;;18.10;67.40;;;;;;5053384;28;20520;-77
2023/09/26 09:03:10;;;;;;;9.75;4.10;;;18.30;67.00;;;;;;5051636;28;20056;-75
2023/09/26 09:05:35;;;;;;;5.85;4.28;;;18.40;66.50;;;;;;5057937;28;20024;-76
2023/09/26 09:08:01;;;;;;;6.75;3.90;;;18.40;65.80;;;;;;5038960;28;20025;-77
2023/09/26 09:10:27;;;;;;;7.38;3.55;;;18.60;66.30;;;;;;5052665;28;20473;-78
2023/09/26 09:13:04;;;;;;;8.10;3.95;;;18.80;64.90;;;;;;5041571;28;20049;-77
2023/09/26 09:15:31;;;;;;;5.85;3.53;;;19.00;64.00;;;;;;5043176;28;20064;-76
2023/09/26 09:17:57;;;;;;;7.13;3.58;;;19.00;64.40;;;;;;5008470;28;20033;-77
2023/09/26 09:20:36;;;;;;;6.85;3.63;;;19.20;62.00;;;;;;5066006;28;20116;-76
2023/09/26 09:23:06;;;;;;;4.28;2.97;;;19.20;62.10;;;;;;5052885;28;20052;-76
2023/09/26 09:25:34;;;;;;;6.05;2.85;;;19.20;62.70;;;;;;5052472;28;20071;-76
2023/09/26 09:28:02;;;;;;;4.43;2.78;;;19.40;62.20;;;;;;5052690;28;20025;-77
2023/09/26 09:30:28;;;;;;;6.45;2.90;;;19.60;59.90;;;;;;5052908;28;20021;-76
2023/09/26 09:32:55;;;;;;;3.80;2.63;;;19.80;57.70;;;;;;5052433;28;20033;-76
2023/09/26 09:35:22;;;;;;;5.93;3.00;;;20.00;57.40;;;;;;5051850;28;20052;-74
2023/09/26 09:37:49;;;;;;;7.65;2.97;;;20.00;56.20;;;;;;5035824;28;20401;-76
2023/09/26 09:40:19;;;;;;;8.73;3.30;;;20.10;54.90;;;;;;5045600;28;20386;-76
2023/09/26 09:42:47;;;;;;;4.72;3.13;;;20.20;54.20;;;;;;5031700;28;20022;-76
2023/09/26 09:45:14;;;;;;;5.22;2.88;;;20.50;52.40;;;;;;5032344;28;20029;-76
2023/09/26 09:47:43;;;;;;;5.43;2.60;;;20.40;53.50;;;;;;5032371;28;20470;-76
2023/09/26 09:50:09;;;;;;;5.95;3.42;;;20.60;54.40;;;;;;5031834;28;20086;-76
2023/09/26 09:52:38;;;;;;;3.45;2.75;;;20.80;53.00;;;;;;5031890;28;20029;-75
2023/09/26 09:55:08;;;;;;;6.15;2.72;;;21.00;53.50;;;;;;5032244;28;20025;-75
2023/09/26 09:57:41;;;;;;;12.07;3.17;;;21.20;52.30;;;;;;5033425;28;20037;-75
2023/09/26 10:00:08;;;;;;;3.65;2.25;;;21.30;51.80;;;;;;5042624;28;20021;-76
2023/09/26 10:02:35;;;;;;;5.78;2.55;;;21.40;52.00;;;;;;5024021;28;20120;-77
2023/09/26 10:05:06;;;;;;;4.45;2.88;;;21.50;51.00;;;;;;5043171;28;20031;-76
2023/09/26 10:07:33;;;;;;;7.47;3.03;;;21.50;51.00;;;;;;5035198;28;20091;-76
2023/09/26 10:10:00;;;;;;;6.53;2.47;;;21.60;50.20;;;;;;5034360;28;20028;-76
2023/09/26 10:12:27;;;;;;;3.33;1.90;;;21.80;50.60;;;;;;5034832;28;20037;-77
2023/09/26 10:14:59;;;;;;;4.25;2.20;;;22.00;50.80;;;;;;5034671;28;20202;-76
2023/09/26 10:17:26;;;;;;;4.38;1.80;;;22.20;50.30;;;;;;5020107;28;20044;-80
2023/09/26 10:20:18;;;;;;;3.83;2.38;;;22.40;49.40;;;;;;5053843;28;20432;-81
2023/09/26 10:23:10;;;;;;;6.28;2.10;;;22.40;48.60;;;;;;5037276;28;20029;-83
2023/09/26 10:25:37;;;;;;;2.67;1.98;;;22.20;48.70;;;;;;5042805;28;20140;-84
2023/09/26 10:28:08;;;;;;;3.35;2.38;;;22.20;49.00;;;;;;5024042;28;20037;-82
2023/09/26 10:30:44;;;;;;;3.28;2.50;;;22.30;49.30;;;;;;5035623;28;20066;-81
2023/09/26 10:33:10;;;;;;;4.18;1.92;;;22.60;48.20;;;;;;5015079;28;20366;-76
2023/09/26 10:35:43;;;;;;;2.88;2.03;;;22.80;47.80;;;;;;5034116;28;20029;-77
2023/09/26 10:38:18;;;;;;;3.97;2.30;;;23.10;48.00;;;;;;5052109;28;20595;-80
2023/09/26 10:40:48;;;;;;;4.25;1.95;;;23.40;46.40;;;;;;5035025;28;20352;-76
2023/09/26 10:43:17;;;;;;;4.03;1.90;;;23.70;47.10;;;;;;5051385;28;20034;-81
2023/09/26 10:45:47;;;;;;;2.97;1.90;;;23.90;45.90;;;;;;5051409;28;20029;-78
2023/09/26 10:48:21;;;;;;;3.33;2.22;;;24.20;45.00;;;;;;5050560;28;20033;-78
2023/09/26 10:50:48;;;;;;;3.20;1.90;;;24.50;44.60;;;;;;5051080;28;20037;-78
2023/09/26 10:53:14;;;;;;;3.10;1.90;;;24.70;43.30;;;;;;5033689;28;20047;-80
2023/09/26 10:55:43;;;;;;;3.53;2.05;;;24.80;42.60;;;;;;5050405;28;20021;-78
2023/09/26 10:58:08;;;;;;;3.08;2.03;;;24.80;42.90;;;;;;5050622;28;20021;-79
2023/09/26 11:00:35;;;;;;;4.70;2.22;;;24.90;42.60;;;;;;5050927;28;20036;-78
2023/09/26 11:03:02;;;;;;;3.72;2.10;;;24.90;42.10;;;;;;5051245;28;20029;-79
2023/09/26 11:05:33;;;;;;;3.65;2.03;;;25.00;41.90;;;;;;5050733;28;20029;-77
2023/09/26 11:07:58;;;;;;;4.00;2.40;;;25.10;42.40;;;;;;5052881;28;20036;-77
2023/09/26 11:10:25;;;;;;;3.60;2.35;;;24.80;43.10;;;;;;5051074;28;20028;-78
2023/09/26 11:12:51;;;;;;;4.07;1.90;;;25.00;42.90;;;;;;5050795;28;20119;-77
2023/09/26 11:15:17;;;;;;;5.45;2.17;;;25.40;42.30;;;;;;5050993;28;20090;-80
2023/09/26 11:17:48;;;;;;;2.97;1.90;;;25.70;40.50;;;;;;5050827;28;20381;-78
2023/09/26 11:20:15;;;;;;;3.78;2.20;;;26.00;40.10;;;;;;5052208;28;20021;-79
2023/09/26 11:22:48;;;;;;;2.47;1.67;;;26.40;38.60;;;;;;5037118;28;20190;-79
2023/09/26 11:25:15;;;;;;;4.57;2.05;;;25.80;40.40;;;;;;5054907;28;20086;-79
2023/09/26 11:27:44;;;;;;;3.72;2.20;;;25.90;39.20;;;;;;5038206;28;20055;-78
2023/09/26 11:30:20;;;;;;;5.88;2.15;;;25.60;40.50;;;;;;5055042;28;20312;-79
2023/09/26 11:32:50;;;;;;;4.05;2.10;;;25.60;40.40;;;;;;5054998;28;20470;-79
2023/09/26 11:35:16;;;;;;;3.70;2.05;;;25.50;39.90;;;;;;5054766;28;20025;-79
2023/09/26 11:37:42;;;;;;;2.38;1.73;;;25.70;40.10;;;;;;5038589;28;20036;-79
2023/09/26 11:40:11;;;;;;;2.47;1.60;;;26.00;41.30;;;;;;5039346;28;20017;-79
2023/09/26 11:42:50;;;;;;;2.40;1.73;;;26.40;40.10;;;;;;5042264;28;20033;-80
2023/09/26 11:45:20;;;;;;;6.05;1.60;;;26.80;38.40;;;;;;5038115;28;20017;-80
2023/09/26 11:47:46;;;;;;;2.60;1.77;;;27.00;37.80;;;;;;5038045;28;20025;-80
2023/09/26 11:50:12;;;;;;;2.50;1.75;;;27.20;37.40;;;;;;5038233;28;20116;-79
2023/09/26 11:52:37;;;;;;;2.15;1.60;;;27.30;38.30;;;;;;5054190;28;20079;-79
2023/09/26 11:55:03;;;;;;;5.63;1.88;;;27.50;37.40;;;;;;5038139;28;20071;-81
2023/09/26 11:57:33;;;;;;;4.00;1.98;;;27.70;36.30;;;;;;5038369;28;20036;-80
2023/09/26 11:59:59;;;;;;;3.80;2.13;;;26.90;38.60;;;;;;5037289;28;20527;-80
2023/09/26 12:02:25;;;;;;;2.70;1.80;;;26.90;38.00;;;;;;5037894;28;20021;-84
2023/09/26 12:04:50;;;;;;;3.60;1.52;;;26.80;37.60;;;;;;5037344;28;20029;-82
2023/09/26 12:07:16;;;;;;;2.92;1.77;;;26.80;39.40;;;;;;5037637;28;20036;-80
2023/09/26 12:09:44;;;;;;;4.85;1.65;;;27.00;39.00;;;;;;5037210;28;20131;-80
2023/09/26 12:12:12;;;;;;;5.55;1.67;;;27.30;38.20;;;;;;5036131;28;20028;-82
2023/09/26 12:14:38;;;;;;;5.82;1.67;;;27.60;37.70;;;;;;5046195;28;20057;-79
2023/09/26 12:17:04;;;;;;;5.80;2.10;;;27.90;37.30;;;;;;5038478;28;20032;-81
2023/09/26 12:19:30;;;;;;;4.22;1.83;;;28.10;36.30;;;;;;5035542;28;20065;-80
2023/09/26 12:21:55;;;;;;;2.75;1.70;;;27.60;37.10;;;;;;5034534;28;20053;-81
2023/09/26 12:24:21;;;;;;;3.30;1.83;;;27.70;36.60;;;;;;5034362;28;20025;-79
2023/09/26 12:26:47;;;;;;;3.28;2.00;;;27.80;36.90;;;;;;5035188;28;20021;-79
2023/09/26 12:29:15;;;;;;;2.00;1.48;;;27.80;36.00;;;;;;5018425;28;20048;-79
2023/09/26 12:31:45;;;;;;;1.92;1.48;;;28.00;36.50;;;;;;5018725;28;20483;-79
2023/09/26 12:34:14;;;;;;;4.35;1.98;;;28.10;36.40;;;;;;5034221;28;20034;-79
2023/09/26 12:36:42;;;;;;;3.92;1.60;;;28.20;35.40;;;;;;5043208;28;20524;-80
2023/09/26 12:39:09;;;;;;;4.70;1.73;;;28.30;35.30;;;;;;5050836;28;20033;-78
2023/09/26 12:41:35;;;;;;;2.22;1.58;;;28.50;37.10;;;;;;5050947;28;20501;-80
2023/09/26 12:44:00;;;;;;;2.05;1.45;;;28.70;34.60;;;;;;5050553;28;20025;-78